Time;durP1;ratioP1;P1;durP2;ratioP2;P2;SDS_P1;SDS_P2;PMS_P1;PMS_P2;Temp;Humidity;BMP_temperature;BMP_pressure;BME280_temperature;BME280_humidity;BME280_pressure;Samples;Min_cycle;Max_cycle;Signal;HPM_P1;HPM_P2
2023/01/28 00:00:26;;;;;;;20.73;14.88;;;;;;;;;;5016579;28;20389;-72
2023/01/28 00:02:51;;;;;;;18.40;13.20;;;;;;;;;;5033857;28;20030;-73
2023/01/28 00:05:17;;;;;;;19.38;14.35;;;;;;;;;;5016016;28;20512;-73
2023/01/28 00:07:42;;;;;;;20.52;16.20;;;;;;;;;;5016589;28;20022;-73
2023/01/28 00:10:08;;;;;;;18.40;13.30;;;;;;;;;;5034093;28;20426;-73
2023/01/28 00:12:33;;;;;;;18.67;14.32;;;;;;;;;;5035239;28;20028;-74
2023/01/28 00:14:58;;;;;;;18.90;14.05;;;;;;;;;;5036064;28;20113;-73
2023/01/28 00:17:24;;;;;;;22.92;16.23;;;;;;;;;;5036388;28;20029;-73
2023/01/28 00:19:49;;;;;;;41.13;28.17;;;;;;;;;;5016080;28;20021;-73
2023/01/28 00:22:14;;;;;;;82.18;47.10;;;;;;;;;;5016193;28;20025;-73
2023/01/28 00:24:42;;;;;;;195.90;102.82;;;;;;;;;;5016009;28;20466;-73
2023/01/28 00:27:08;;;;;;;250.15;120.88;;;;;;;;;;5033846;28;20030;-73
2023/01/28 00:29:34;;;;;;;965.53;595.13;;;;;;;;;;5033336;28;20021;-73
2023/01/28 00:32:00;;;;;;;332.80;190.23;;;;;;;;;;5016345;28;20064;-70
2023/01/28 00:34:27;;;;;;;496.45;292.73;;;;;;;;;;5034389;28;20063;-71
2023/01/28 00:36:56;;;;;;;234.82;127.93;;;;;;;;;;5016825;28;20021;-72
2023/01/28 00:39:22;;;;;;;112.35;69.55;;;;;;;;;;5034362;28;20021;-72
2023/01/28 00:41:47;;;;;;;206.05;126.63;;;;;;;;;;5033954;28;20022;-72
2023/01/28 00:44:13;;;;;;;90.55;59.45;;;;;;;;;;5033227;28;20026;-72
2023/01/28 00:46:40;;;;;;;130.10;87.43;;;;;;;;;;5032914;28;20041;-72
2023/01/28 00:49:06;;;;;;;67.55;49.75;;;;;;;;;;5011943;28;20029;-72
2023/01/28 00:51:32;;;;;;;59.17;35.55;;;;;;;;;;5016197;28;20529;-72
2023/01/28 00:53:58;;;;;;;37.00;22.67;;;;;;;;;;5000398;28;20234;-72
2023/01/28 00:56:23;;;;;;;166.38;95.82;;;;;;;;;;5015936;28;20473;-72
2023/01/28 00:58:49;;;;;;;75.30;45.70;;;;;;;;;;4999750;28;20033;-72
2023/01/28 01:01:21;;;;;;;193.48;100.65;;;;;;;;;;5015887;28;20400;-72
2023/01/28 01:03:53;;;;;;;86.70;50.17;;;;;;;;;;4999615;28;20021;-71
2023/01/28 01:06:21;;;;;;;163.82;90.53;;;;;;;;;;5013495;28;20381;-71
2023/01/28 01:08:48;;;;;;;101.32;61.47;;;;;;;;;;5013907;28;20033;-73
2023/01/28 01:11:14;;;;;;;153.57;100.93;;;;;;;;;;5016154;28;20481;-73
2023/01/28 01:13:39;;;;;;;90.05;58.60;;;;;;;;;;5033586;28;20030;-73
2023/01/28 01:16:06;;;;;;;97.78;62.25;;;;;;;;;;5033679;28;20376;-74
2023/01/28 01:18:33;;;;;;;177.30;111.20;;;;;;;;;;5016290;28;20033;-74
2023/01/28 01:20:59;;;;;;;114.47;72.68;;;;;;;;;;5034140;28;20053;-73
2023/01/28 01:23:25;;;;;;;102.78;72.38;;;;;;;;;;5032796;28;20048;-73
2023/01/28 01:25:51;;;;;;;54.65;39.28;;;;;;;;;;5028407;28;20076;-70
2023/01/28 01:28:16;;;;;;;34.40;24.75;;;;;;;;;;5013853;28;20057;-71
2023/01/28 01:30:42;;;;;;;24.98;18.23;;;;;;;;;;5013979;28;20105;-71
2023/01/28 01:33:07;;;;;;;32.13;23.73;;;;;;;;;;5014180;28;20458;-71
2023/01/28 01:35:32;;;;;;;26.13;20.10;;;;;;;;;;5014610;28;20026;-71
2023/01/28 01:37:58;;;;;;;37.65;29.38;;;;;;;;;;5015020;28;20057;-72
2023/01/28 01:40:23;;;;;;;27.75;20.80;;;;;;;;;;5013533;28;20363;-73
2023/01/28 01:43:03;;;;;;;21.70;16.30;;;;;;;;;;4989786;23;20105;-73
2023/01/28 01:45:31;;;;;;;20.35;14.77;;;;;;;;;;4985100;28;20054;-73
2023/01/28 01:48:00;;;;;;;22.55;16.42;;;;;;;;;;4994115;28;20042;-77
2023/01/28 01:50:36;;;;;;;18.85;14.85;;;;;;;;;;4960111;28;20485;-77
2023/01/28 01:53:22;;;;;;;20.45;13.80;;;;;;;;;;4976793;28;20061;-77
2023/01/28 01:55:49;;;;;;;17.23;13.07;;;;;;;;;;4957389;28;20043;-77
2023/01/28 01:58:17;;;;;;;17.02;12.73;;;;;;;;;;4973344;28;20042;-77
2023/01/28 02:00:43;;;;;;;18.58;13.20;;;;;;;;;;4989467;28;20031;-77
2023/01/28 02:03:09;;;;;;;17.60;13.10;;;;;;;;;;4997150;23;20033;-72
2023/01/28 02:05:35;;;;;;;19.00;13.60;;;;;;;;;;5048110;28;20033;-72
2023/01/28 02:10:46;;;;;;;17.75;12.95;;;;;;;;;;5055238;28;20032;-72
2023/01/28 02:13:14;;;;;;;18.48;13.32;;;;;;;;;;5055228;28;20030;-72
2023/01/28 02:15:39;;;;;;;19.83;14.48;;;;;;;;;;5073095;28;20085;-72
2023/01/28 02:18:05;;;;;;;15.90;12.40;;;;;;;;;;5075726;28;20037;-74
2023/01/28 02:20:51;;;;;;;16.67;11.98;;;;;;;;;;5076307;28;20032;-73
2023/01/28 02:23:28;;;;;;;15.48;11.55;;;;;;;;;;5061770;28;20037;-74
2023/01/28 02:26:06;;;;;;;16.90;11.77;;;;;;;;;;5061826;28;20071;-74
2023/01/28 02:28:49;;;;;;;16.50;11.45;;;;;;;;;;5042113;28;20074;-74
2023/01/28 02:31:18;;;;;;;15.90;11.85;;;;;;;;;;5058898;28;20040;-74
2023/01/28 02:33:48;;;;;;;16.45;12.30;;;;;;;;;;5058048;28;20086;-74
2023/01/28 02:36:32;;;;;;;16.38;11.48;;;;;;;;;;5076598;28;20032;-73
2023/01/28 02:39:00;;;;;;;15.95;12.25;;;;;;;;;;5054180;28;20028;-73
2023/01/28 02:41:31;;;;;;;16.20;11.82;;;;;;;;;;5074840;28;20556;-73
2023/01/28 02:43:56;;;;;;;;;;;;;;;;;;5058951;28;20039;-76
2023/01/28 02:49:15;;;;;;;16.45;11.75;;;;;;;;;;5076356;28;20029;-72
2023/01/28 02:51:46;;;;;;;14.52;11.50;;;;;;;;;;5076177;28;20052;-71
2023/01/28 02:54:21;;;;;;;17.08;12.88;;;;;;;;;;5057977;28;20032;-71
2023/01/28 02:56:46;;;;;;;20.55;14.02;;;;;;;;;;5075898;28;20044;-71
2023/01/28 02:59:30;;;;;;;20.80;15.30;;;;;;;;;;5058343;28;20024;-71
2023/01/28 03:02:12;;;;;;;16.48;11.50;;;;;;;;;;5057657;28;20028;-72
2023/01/28 03:04:45;;;;;;;15.88;11.63;;;;;;;;;;5062778;28;20392;-72
2023/01/28 03:07:11;;;;;;;16.90;11.43;;;;;;;;;;5094726;28;20020;-72
2023/01/28 03:09:41;;;;;;;13.98;10.20;;;;;;;;;;5084990;28;20028;-72
2023/01/28 03:37:42;;;;;;;17.55;12.10;;;;;;;;;;5074900;28;20032;-72
2023/01/28 03:40:13;;;;;;;16.98;11.70;;;;;;;;;;5079513;28;20031;-73
2023/01/28 03:42:38;;;;;;;17.10;12.23;;;;;;;;;;5073606;28;20028;-73
2023/01/28 03:45:10;;;;;;;18.85;12.77;;;;;;;;;;5073577;28;20059;-73
2023/01/28 03:47:36;;;;;;;17.05;12.25;;;;;;;;;;5080836;28;20025;-73
2023/01/28 03:50:06;;;;;;;17.75;12.23;;;;;;;;;;5092829;28;20049;-73
2023/01/28 03:52:37;;;;;;;18.70;11.65;;;;;;;;;;5077801;28;20108;-73
2023/01/28 03:55:22;;;;;;;18.85;13.10;;;;;;;;;;5094642;28;20096;-73
2023/01/28 03:57:49;;;;;;;18.50;12.45;;;;;;;;;;5077093;28;20028;-75
2023/01/28 04:00:16;;;;;;;17.98;12.52;;;;;;;;;;5077308;28;20047;-74
2023/01/28 04:02:42;;;;;;;17.42;12.38;;;;;;;;;;5076909;28;20394;-76
2023/01/28 04:05:11;;;;;;;20.70;13.60;;;;;;;;;;5058994;28;20041;-76
2023/01/28 04:07:42;;;;;;;18.92;12.98;;;;;;;;;;5056500;28;20476;-75
2023/01/28 04:10:21;;;;;;;21.13;14.32;;;;;;;;;;5074207;28;20056;-75
2023/01/28 04:12:55;;;;;;;19.10;13.02;;;;;;;;;;5056451;28;20426;-75
2023/01/28 04:15:22;;;;;;;20.75;14.73;;;;;;;;;;5056995;28;20120;-75
2023/01/28 04:17:48;;;;;;;21.08;13.82;;;;;;;;;;5074388;28;20032;-72
2023/01/28 04:20:24;;;;;;;19.63;13.32;;;;;;;;;;5056464;28;20431;-72
2023/01/28 04:22:49;;;;;;;22.63;15.02;;;;;;;;;;5056228;28;20036;-73
2023/01/28 04:25:15;;;;;;;17.95;13.00;;;;;;;;;;5040295;28;20040;-75
2023/01/28 04:27:42;;;;;;;19.83;13.85;;;;;;;;;;5074368;28;20034;-75
2023/01/28 04:30:16;;;;;;;23.45;14.30;;;;;;;;;;5051495;28;20120;-75
2023/01/28 04:32:51;;;;;;;21.58;14.10;;;;;;;;;;5040436;28;20028;-75
2023/01/28 04:35:37;;;;;;;24.13;17.00;;;;;;;;;;5073069;28;20045;-75
2023/01/28 04:38:28;;;;;;;21.83;15.65;;;;;;;;;;5057708;28;20044;-75
2023/01/28 04:41:03;;;;;;;19.58;15.05;;;;;;;;;;5040862;28;20413;-73
2023/01/28 04:43:31;;;;;;;20.77;14.40;;;;;;;;;;5074040;28;20032;-74
2023/01/28 04:46:16;;;;;;;21.00;14.20;;;;;;;;;;5056339;28;20438;-71
2023/01/28 04:48:53;;;;;;;20.08;13.77;;;;;;;;;;5073891;28;20358;-76
2023/01/28 04:51:38;;;;;;;19.50;14.20;;;;;;;;;;5074241;28;20075;-76
2023/01/28 04:54:27;;;;;;;;;;;;;;;;;;5059963;28;20032;-77
2023/01/28 04:56:57;;;;;;;20.45;13.50;;;;;;;;;;5060648;28;20037;-77
2023/01/28 04:59:25;;;;;;;20.42;14.02;;;;;;;;;;5062079;28;20468;-77
2023/01/28 05:01:50;;;;;;;21.13;13.77;;;;;;;;;;5039855;28;20073;-74
2023/01/28 05:04:16;;;;;;;20.52;13.73;;;;;;;;;;5055430;28;20392;-74
2023/01/28 05:06:41;;;;;;;19.55;14.18;;;;;;;;;;5039208;28;20123;-74
2023/01/28 05:09:15;;;;;;;20.15;14.40;;;;;;;;;;5055351;28;20048;-74
2023/01/28 05:11:40;;;;;;;19.10;14.35;;;;;;;;;;5055723;28;20032;-74
2023/01/28 05:14:06;;;;;;;21.25;14.65;;;;;;;;;;5038825;28;20044;-72
2023/01/28 05:16:44;;;;;;;21.35;14.65;;;;;;;;;;5040537;28;20036;-73
2023/01/28 05:19:10;;;;;;;18.88;14.27;;;;;;;;;;5039213;28;20039;-73
2023/01/28 05:21:39;;;;;;;23.70;15.10;;;;;;;;;;5055499;28;20036;-74
2023/01/28 05:24:12;;;;;;;19.88;13.68;;;;;;;;;;5088971;28;20028;-75
2023/01/28 05:26:37;;;;;;;22.27;14.52;;;;;;;;;;5049960;28;20094;-74
2023/01/28 05:29:03;;;;;;;18.95;14.18;;;;;;;;;;5055288;28;20106;-73
2023/01/28 05:31:29;;;;;;;19.13;13.77;;;;;;;;;;5088819;28;20033;-73
2023/01/28 05:33:55;;;;;;;24.83;13.75;;;;;;;;;;5055419;28;20536;-73
2023/01/28 05:36:21;;;;;;;20.73;13.98;;;;;;;;;;5055889;28;20024;-72
2023/01/28 05:38:46;;;;;;;21.15;13.95;;;;;;;;;;5038468;28;20548;-73
2023/01/28 05:41:12;;;;;;;18.52;13.50;;;;;;;;;;5055290;28;20088;-73
2023/01/28 05:43:40;;;;;;;24.23;14.48;;;;;;;;;;5038760;28;20057;-73
2023/01/28 05:46:37;;;;;;;25.10;18.17;;;;;;;;;;5037537;28;20426;-73
2023/01/28 05:49:14;;;;;;;20.90;13.75;;;;;;;;;;5055610;28;20097;-73
2023/01/28 05:52:09;;;;;;;26.20;16.35;;;;;;;;;;5075025;28;20085;-73
2023/01/28 05:54:35;;;;;;;24.20;15.82;;;;;;;;;;5042326;28;20361;-71
2023/01/28 05:57:00;;;;;;;21.73;14.43;;;;;;;;;;5058722;28;20025;-71
2023/01/28 05:59:27;;;;;;;21.73;14.40;;;;;;;;;;5042005;28;20024;-72
2023/01/28 06:01:55;;;;;;;22.83;13.60;;;;;;;;;;5058728;28;20115;-72
2023/01/28 06:04:20;;;;;;;17.85;13.57;;;;;;;;;;5042031;28;20123;-71
2023/01/28 06:06:45;;;;;;;17.60;14.18;;;;;;;;;;5058641;28;20036;-74
2023/01/28 06:09:11;;;;;;;15.90;12.30;;;;;;;;;;5058135;28;20718;-79
2023/01/28 06:11:37;;;;;;;17.08;12.55;;;;;;;;;;5058646;28;20682;-79
2023/01/28 06:14:03;;;;;;;15.48;12.45;;;;;;;;;;5042489;28;20108;-79
2023/01/28 06:16:40;;;;;;;17.85;13.20;;;;;;;;;;5076666;28;20426;-79
2023/01/28 06:19:28;;;;;;;15.35;11.48;;;;;;;;;;5056612;28;20032;-79
2023/01/28 06:21:54;;;;;;;13.85;10.75;;;;;;;;;;5054766;28;20033;-79
2023/01/28 06:24:19;;;;;;;14.10;11.18;;;;;;;;;;5058990;28;20451;-80
2023/01/28 06:26:45;;;;;;;16.85;12.40;;;;;;;;;;5058530;28;20028;-79
2023/01/28 06:29:12;;;;;;;19.30;14.15;;;;;;;;;;5058629;28;20051;-78
2023/01/28 06:31:38;;;;;;;28.65;21.35;;;;;;;;;;5076004;28;20052;-78
2023/01/28 06:34:03;;;;;;;76.90;44.47;;;;;;;;;;5058069;28;20028;-78
2023/01/28 06:36:29;;;;;;;30.55;20.55;;;;;;;;;;5057954;28;20123;-78
2023/01/28 06:38:55;;;;;;;19.50;14.20;;;;;;;;;;5075654;28;20556;-78
2023/01/28 06:41:22;;;;;;;13.02;11.35;;;;;;;;;;5058154;28;20028;-80
2023/01/28 06:43:47;;;;;;;25.92;15.07;;;;;;;;;;5076560;28;20040;-81
2023/01/28 06:46:15;;;;;;;15.05;11.63;;;;;;;;;;5076114;28;20482;-80
2023/01/28 06:48:40;;;;;;;23.42;17.27;;;;;;;;;;5057690;28;20085;-74
2023/01/28 06:51:05;;;;;;;33.00;24.90;;;;;;;;;;5057827;28;20025;-74
2023/01/28 06:53:31;;;;;;;107.43;96.30;;;;;;;;;;5057863;28;20029;-74
2023/01/28 06:55:56;;;;;;;119.55;97.38;;;;;;;;;;5057401;28;20230;-74
2023/01/28 06:58:22;;;;;;;35.42;28.45;;;;;;;;;;5075271;28;20123;-74
2023/01/28 07:00:53;;;;;;;35.63;31.75;;;;;;;;;;5057221;28;20032;-73
2023/01/28 07:03:18;;;;;;;19.05;14.90;;;;;;;;;;5072962;28;20039;-74
2023/01/28 07:05:44;;;;;;;14.50;11.00;;;;;;;;;;5073099;28;20041;-73
2023/01/28 07:08:09;;;;;;;14.02;11.10;;;;;;;;;;5074200;28;20119;-73
2023/01/28 07:10:35;;;;;;;13.05;10.35;;;;;;;;;;5092844;28;20103;-75
2023/01/28 07:13:00;;;;;;;15.82;11.48;;;;;;;;;;5084108;28;20016;-73
2023/01/28 07:15:26;;;;;;;22.92;14.32;;;;;;;;;;5075511;28;20080;-72
2023/01/28 07:17:51;;;;;;;44.20;21.95;;;;;;;;;;5067778;28;20501;-72
2023/01/28 07:20:23;;;;;;;20.23;13.07;;;;;;;;;;5054796;28;20029;-73
2023/01/28 07:22:48;;;;;;;14.30;11.35;;;;;;;;;;5055324;28;20480;-72
2023/01/28 07:25:14;;;;;;;13.65;10.73;;;;;;;;;;5036826;28;20029;-73
2023/01/28 07:27:44;;;;;;;11.95;10.07;;;;;;;;;;5036690;28;20028;-73
2023/01/28 07:30:10;;;;;;;;;;;;;;;;;;5054751;28;20361;-74
2023/01/28 07:32:35;;;;;;;12.52;9.73;;;;;;;;;;5073394;28;19909;-73
2023/01/28 07:35:00;;;;;;;12.93;10.10;;;;;;;;;;5075253;28;20461;-73
2023/01/28 07:37:26;;;;;;;15.43;11.55;;;;;;;;;;5057274;28;20032;-73
2023/01/28 07:39:51;;;;;;;21.17;15.98;;;;;;;;;;5072349;28;20421;-72
2023/01/28 07:42:17;;;;;;;20.90;15.68;;;;;;;;;;5054895;28;20075;-75
2023/01/28 07:44:46;;;;;;;15.23;11.88;;;;;;;;;;5053630;28;20120;-76
2023/01/28 07:47:11;;;;;;;29.92;20.65;;;;;;;;;;5055067;28;20052;-74
2023/01/28 07:49:38;;;;;;;15.23;11.30;;;;;;;;;;5054299;28;20104;-74
2023/01/28 07:52:04;;;;;;;16.80;13.23;;;;;;;;;;5053510;28;20036;-73
2023/01/28 07:54:29;;;;;;;16.10;12.50;;;;;;;;;;5054666;28;20021;-73
2023/01/28 07:56:55;;;;;;;18.63;14.02;;;;;;;;;;5053012;28;20358;-73
2023/01/28 07:59:21;;;;;;;14.85;11.77;;;;;;;;;;5053458;28;20031;-73
2023/01/28 08:01:46;;;;;;;15.32;12.23;;;;;;;;;;5054659;28;20017;-73
2023/01/28 08:04:11;;;;;;;19.80;15.48;;;;;;;;;;5071929;28;20036;-63
2023/01/28 08:06:37;;;;;;;16.30;12.98;;;;;;;;;;5094591;28;20036;-63
2023/01/28 08:09:04;;;;;;;16.48;12.93;;;;;;;;;;5092837;28;20032;-64
2023/01/28 08:11:31;;;;;;;16.50;13.57;;;;;;;;;;5093808;28;20032;-63
2023/01/28 08:13:56;;;;;;;12.85;10.52;;;;;;;;;;5086385;28;20610;-62
2023/01/28 08:16:22;;;;;;;13.20;10.45;;;;;;;;;;5089748;28;20044;-63
2023/01/28 08:18:48;;;;;;;18.70;13.52;;;;;;;;;;5089606;28;20074;-62
2023/01/28 08:21:13;;;;;;;19.20;11.55;;;;;;;;;;5092059;28;20051;-76
2023/01/28 08:23:41;;;;;;;12.50;10.85;;;;;;;;;;5092610;28;20036;-76
2023/01/28 08:26:08;;;;;;;11.75;9.57;;;;;;;;;;5072808;28;20028;-76
2023/01/28 08:28:33;;;;;;;12.95;10.63;;;;;;;;;;5085734;28;20075;-76
2023/01/28 08:30:59;;;;;;;12.68;10.68;;;;;;;;;;5090200;28;20056;-77
2023/01/28 08:33:25;;;;;;;20.02;15.07;;;;;;;;;;5091359;28;20065;-76
2023/01/28 08:35:50;;;;;;;18.17;13.65;;;;;;;;;;5089712;28;20679;-79
2023/01/28 08:38:16;;;;;;;16.05;12.80;;;;;;;;;;5091286;28;20043;-72
2023/01/28 08:40:42;;;;;;;13.65;10.75;;;;;;;;;;5091344;28;20119;-76
2023/01/28 08:43:07;;;;;;;13.20;11.02;;;;;;;;;;5090408;28;20114;-76
2023/01/28 08:45:33;;;;;;;13.77;9.98;;;;;;;;;;5092363;28;20028;-75
2023/01/28 08:47:59;;;;;;;358.10;168.32;;;;;;;;;;5091591;28;20521;-76
2023/01/28 08:50:28;;;;;;;947.45;506.52;;;;;;;;;;5091644;28;20032;-76
2023/01/28 08:52:55;;;;;;;239.43;115.93;;;;;;;;;;5091940;28;20024;-75
2023/01/28 08:55:21;;;;;;;56.70;32.83;;;;;;;;;;5090183;28;20441;-75
2023/01/28 08:57:46;;;;;;;85.88;56.28;;;;;;;;;;5089936;28;20036;-75
2023/01/28 09:00:13;;;;;;;49.92;38.55;;;;;;;;;;5089160;28;20039;-74
2023/01/28 09:02:38;;;;;;;32.90;24.02;;;;;;;;;;5088957;28;20024;-74
2023/01/28 09:05:05;;;;;;;32.28;25.40;;;;;;;;;;5090600;28;20047;-73
2023/01/28 09:07:31;;;;;;;39.55;28.17;;;;;;;;;;5090179;28;20024;-64
2023/01/28 09:09:56;;;;;;;31.77;28.05;;;;;;;;;;5089745;28;20028;-74
2023/01/28 09:12:21;;;;;;;13.15;11.52;;;;;;;;;;5074446;28;20023;-75
2023/01/28 09:14:47;;;;;;;13.45;12.02;;;;;;;;;;5092214;28;20043;-74
2023/01/28 09:17:12;;;;;;;64.85;43.17;;;;;;;;;;5091329;28;20111;-74
2023/01/28 09:19:37;;;;;;;67.10;42.78;;;;;;;;;;5092956;28;20055;-74
2023/01/28 09:22:07;;;;;;;310.52;193.38;;;;;;;;;;5093054;28;20387;-74
2023/01/28 09:24:32;;;;;;;31.35;25.88;;;;;;;;;;5092551;28;20023;-74
2023/01/28 09:26:59;;;;;;;59.97;46.70;;;;;;;;;;5092864;28;20410;-74
2023/01/28 09:29:24;;;;;;;34.38;30.70;;;;;;;;;;5094621;28;20032;-74
2023/01/28 09:31:49;;;;;;;22.60;20.17;;;;;;;;;;5077998;28;20035;-75
2023/01/28 09:34:15;;;;;;;33.17;27.58;;;;;;;;;;5095160;28;20028;-75
2023/01/28 09:36:42;;;;;;;27.95;24.85;;;;;;;;;;5094830;28;20498;-81
2023/01/28 09:39:07;;;;;;;43.55;38.15;;;;;;;;;;5094549;28;20028;-75
2023/01/28 09:41:54;;;;;;;177.38;150.13;;;;;;;;;;5094934;28;20540;-74
2023/01/28 09:44:38;;;;;;;359.70;196.93;;;;;;;;;;5053004;28;20047;-74
2023/01/28 09:47:07;;;;;;;104.47;76.85;;;;;;;;;;5093034;28;20071;-74
2023/01/28 09:49:44;;;;;;;77.97;67.68;;;;;;;;;;5076699;28;20032;-75
2023/01/28 09:52:17;;;;;;;34.08;28.85;;;;;;;;;;5095804;28;20039;-75
2023/01/28 09:54:45;;;;;;;27.92;19.95;;;;;;;;;;5094108;28;20501;-75
2023/01/28 09:57:19;;;;;;;23.50;19.00;;;;;;;;;;5094743;28;20616;-74
2023/01/28 09:59:45;;;;;;;34.33;30.75;;;;;;;;;;5093705;28;20028;-75
2023/01/28 10:02:13;;;;;;;48.83;43.45;;;;;;;;;;5093626;28;20461;-75
2023/01/28 10:04:57;;;;;;;26.75;23.85;;;;;;;;;;5093584;28;20055;-75
2023/01/28 10:07:26;;;;;;;45.95;34.83;;;;;;;;;;5093735;28;20024;-62
2023/01/28 10:10:06;;;;;;;115.40;75.45;;;;;;;;;;5093825;28;20056;-75
2023/01/28 10:12:32;;;;;;;25.27;19.48;;;;;;;;;;5092773;28;20070;-75
2023/01/28 10:14:57;;;;;;;46.45;27.40;;;;;;;;;;5091131;28;20078;-75
2023/01/28 10:17:27;;;;;;;24.02;16.65;;;;;;;;;;5091271;28;20035;-75
2023/01/28 10:19:57;;;;;;;23.55;16.45;;;;;;;;;;5074364;28;20053;-75
2023/01/28 10:22:25;;;;;;;38.50;25.93;;;;;;;;;;5092953;28;20357;-75
2023/01/28 10:24:57;;;;;;;26.85;20.65;;;;;;;;;;5091183;28;20270;-73
2023/01/28 10:27:23;;;;;;;28.92;22.92;;;;;;;;;;5090823;28;20028;-73
2023/01/28 10:29:49;;;;;;;51.35;38.95;;;;;;;;;;5091897;28;20318;-74
2023/01/28 10:32:26;;;;;;;54.33;35.55;;;;;;;;;;5090505;28;20036;-74
2023/01/28 10:34:52;;;;;;;84.88;54.28;;;;;;;;;;5089151;28;20031;-74
2023/01/28 10:37:17;;;;;;;45.97;33.28;;;;;;;;;;5090868;28;20032;-74
2023/01/28 10:39:44;;;;;;;28.17;21.75;;;;;;;;;;5090461;28;20432;-74
2023/01/28 10:42:16;;;;;;;24.05;18.02;;;;;;;;;;5091450;28;20024;-74
2023/01/28 10:44:42;;;;;;;22.77;18.70;;;;;;;;;;5090063;28;20035;-74
2023/01/28 10:47:19;;;;;;;19.40;16.08;;;;;;;;;;5089895;28;20055;-74
2023/01/28 10:49:46;;;;;;;16.98;14.20;;;;;;;;;;5089363;28;20039;-74
2023/01/28 10:52:13;;;;;;;14.50;12.88;;;;;;;;;;5088757;28;20081;-74
2023/01/28 10:54:38;;;;;;;19.98;15.70;;;;;;;;;;5089669;28;20344;-74
2023/01/28 10:57:09;;;;;;;23.52;20.88;;;;;;;;;;5091617;28;20138;-74
2023/01/28 10:59:35;;;;;;;25.27;20.97;;;;;;;;;;5093067;28;20552;-74
2023/01/28 11:02:03;;;;;;;67.63;48.40;;;;;;;;;;5074807;28;20274;-74
2023/01/28 11:04:32;;;;;;;54.40;43.25;;;;;;;;;;5092967;28;20048;-74
2023/01/28 11:06:58;;;;;;;62.20;43.45;;;;;;;;;;5092420;28;20032;-74
2023/01/28 11:09:27;;;;;;;31.77;23.23;;;;;;;;;;5075177;28;20028;-75
2023/01/28 11:11:54;;;;;;;20.50;16.65;;;;;;;;;;5074638;28;20400;-74
2023/01/28 11:14:20;;;;;;;19.95;16.25;;;;;;;;;;5074740;28;20032;-74
2023/01/28 11:16:48;;;;;;;40.40;27.90;;;;;;;;;;5076028;28;20106;-74
2023/01/28 11:19:14;;;;;;;97.15;43.53;;;;;;;;;;5094973;28;20103;-75
2023/01/28 11:21:49;;;;;;;21.35;18.55;;;;;;;;;;5094892;28;20432;-75
2023/01/28 11:24:19;;;;;;;31.25;21.67;;;;;;;;;;5092993;28;20383;-73
2023/01/28 11:26:48;;;;;;;19.17;15.38;;;;;;;;;;5075196;28;20040;-74
2023/01/28 11:29:24;;;;;;;74.82;34.08;;;;;;;;;;5093305;28;20055;-74
2023/01/28 11:31:50;;;;;;;39.85;33.05;;;;;;;;;;5074070;28;20490;-73
2023/01/28 11:34:16;;;;;;;17.17;13.27;;;;;;;;;;5073707;28;20012;-73
2023/01/28 11:36:52;;;;;;;25.35;19.48;;;;;;;;;;5074961;28;20040;-73
2023/01/28 11:39:24;;;;;;;44.97;31.88;;;;;;;;;;5056759;28;20036;-73
2023/01/28 11:41:50;;;;;;;64.97;33.08;;;;;;;;;;5073891;28;20117;-72
2023/01/28 11:44:18;;;;;;;30.73;20.70;;;;;;;;;;5092131;28;20059;-72
2023/01/28 11:46:52;;;;;;;22.02;16.45;;;;;;;;;;5091953;28;20035;-72
2023/01/28 11:49:17;;;;;;;17.65;14.30;;;;;;;;;;5091334;28;20051;-73
2023/01/28 11:51:50;;;;;;;42.35;29.13;;;;;;;;;;5074159;28;20036;-73
2023/01/28 11:54:43;;;;;;;25.77;19.98;;;;;;;;;;5074098;28;20047;-72
2023/01/28 11:57:08;;;;;;;27.25;21.25;;;;;;;;;;5074061;28;20411;-72
2023/01/28 11:59:36;;;;;;;57.15;37.95;;;;;;;;;;5073772;28;20032;-72
2023/01/28 12:02:23;;;;;;;176.05;72.05;;;;;;;;;;5073644;28;20043;-72
2023/01/28 12:05:06;;;;;;;154.70;61.63;;;;;;;;;;5077577;28;20044;-73
2023/01/28 12:07:36;;;;;;;161.55;66.57;;;;;;;;;;5073730;28;20426;-71
2023/01/28 12:10:01;;;;;;;821.13;330.75;;;;;;;;;;5057517;28;20542;-71
2023/01/28 12:12:30;;;;;;;74.47;52.50;;;;;;;;;;5092193;28;20141;-73
2023/01/28 12:15:20;;;;;;;114.07;70.85;;;;;;;;;;5096509;28;20020;-71
2023/01/28 12:18:05;;;;;;;57.30;42.47;;;;;;;;;;5077699;28;20024;-71
2023/01/28 12:20:50;;;;;;;41.05;30.63;;;;;;;;;;5092645;28;20059;-70
2023/01/28 12:23:24;;;;;;;45.00;35.08;;;;;;;;;;5074371;28;20028;-70
2023/01/28 12:26:18;;;;;;;49.88;39.63;;;;;;;;;;5093555;28;20519;-71
2023/01/28 12:28:56;;;;;;;522.67;193.25;;;;;;;;;;5091923;28;20032;-74
2023/01/28 12:31:31;;;;;;;78.22;52.35;;;;;;;;;;5091973;28;20116;-75
2023/01/28 12:34:15;;;;;;;145.25;74.10;;;;;;;;;;5091561;28;20032;-73
2023/01/28 12:36:43;;;;;;;284.92;122.43;;;;;;;;;;5074674;28;20051;-75
2023/01/28 12:42:09;;;;;;;1037.43;470.92;;;;;;;;;;5093328;28;20043;-70
2023/01/28 12:44:37;;;;;;;44.88;34.03;;;;;;;;;;5075433;28;20035;-78
2023/01/28 12:47:15;;;;;;;38.25;26.20;;;;;;;;;;5091847;28;20605;-78
2023/01/28 12:49:47;;;;;;;686.53;314.70;;;;;;;;;;5091049;28;20024;-77
2023/01/28 12:52:25;;;;;;;1895.30;874.70;;;;;;;;;;5091796;28;20099;-78
2023/01/28 12:54:59;;;;;;;86.20;47.28;;;;;;;;;;5059294;28;20032;-80
2023/01/28 12:57:30;;;;;;;235.20;113.47;;;;;;;;;;5076323;28;20129;-80
2023/01/28 13:00:14;;;;;;;54.80;36.45;;;;;;;;;;5094078;28;20066;-80
2023/01/28 13:02:41;;;;;;;271.98;153.55;;;;;;;;;;5094194;28;20024;-80
2023/01/28 13:05:07;;;;;;;312.30;174.60;;;;;;;;;;5093469;28;20128;-79
2023/01/28 13:07:47;;;;;;;332.08;196.60;;;;;;;;;;5075720;28;20063;-79
2023/01/28 13:10:31;;;;;;;245.15;138.10;;;;;;;;;;5057396;28;20480;-79
2023/01/28 13:12:57;;;;;;;421.48;285.77;;;;;;;;;;5074672;28;20116;-79
2023/01/28 13:15:23;;;;;;;197.20;129.65;;;;;;;;;;5092673;28;20040;-80
2023/01/28 13:18:03;;;;;;;257.98;177.90;;;;;;;;;;5074528;28;20027;-79
2023/01/28 13:20:34;;;;;;;45.80;34.17;;;;;;;;;;5074326;28;20072;-79
2023/01/28 13:23:05;;;;;;;55.35;39.58;;;;;;;;;;5090676;28;20071;-79
2023/01/28 13:25:31;;;;;;;125.70;94.65;;;;;;;;;;5091968;28;20119;-78
2023/01/28 13:28:01;;;;;;;50.38;38.95;;;;;;;;;;5091786;28;20024;-79
2023/01/28 13:30:28;;;;;;;112.40;82.50;;;;;;;;;;5073854;28;20039;-79
2023/01/28 13:32:59;;;;;;;48.22;30.98;;;;;;;;;;5073506;28;20115;-78
2023/01/28 13:35:35;;;;;;;74.35;56.58;;;;;;;;;;5075265;28;20106;-78
2023/01/28 13:38:16;;;;;;;33.03;23.33;;;;;;;;;;5094265;28;20028;-78
2023/01/28 13:40:42;;;;;;;71.82;56.17;;;;;;;;;;5058597;28;20058;-78
2023/01/28 13:43:36;;;;;;;32.40;25.23;;;;;;;;;;5093549;28;20032;-78
2023/01/28 13:46:06;;;;;;;34.00;23.52;;;;;;;;;;5093417;28;20020;-78
2023/01/28 13:51:27;;;;;;;302.02;197.80;;;;;;;;;;5059204;22;20059;-78
2023/01/28 13:54:11;;;;;;;82.68;55.72;;;;;;;;;;5053119;28;20032;-77
2023/01/28 13:56:41;;;;;;;85.13;55.30;;;;;;;;;;5052203;28;20037;-78
2023/01/28 13:59:15;;;;;;;40.75;26.58;;;;;;;;;;5053333;28;20033;-78
2023/01/28 14:02:00;;;;;;;37.85;25.55;;;;;;;;;;5051742;28;20075;-77
2023/01/28 14:04:41;;;;;;;61.47;42.08;;;;;;;;;;5053547;28;20037;-77
2023/01/28 14:07:21;;;;;;;31.52;23.40;;;;;;;;;;5053289;28;20494;-78
2023/01/28 14:09:58;;;;;;;30.42;21.67;;;;;;;;;;5052913;28;20068;-78
2023/01/28 14:12:47;;;;;;;68.07;54.33;;;;;;;;;;5053082;28;20114;-77
2023/01/28 14:15:20;;;;;;;34.85;26.98;;;;;;;;;;5056607;28;20033;-77
2023/01/28 14:17:56;;;;;;;40.63;26.85;;;;;;;;;;5055842;28;20053;-78
2023/01/28 14:20:39;;;;;;;37.40;25.40;;;;;;;;;;5056992;28;20040;-77
2023/01/28 14:23:12;;;;;;;45.85;32.42;;;;;;;;;;5056929;28;20033;-77
2023/01/28 14:25:55;;;;;;;60.47;46.15;;;;;;;;;;5056724;28;20091;-77
2023/01/28 14:28:41;;;;;;;72.07;46.95;;;;;;;;;;5056797;28;20052;-77
2023/01/28 14:31:17;;;;;;;58.60;39.47;;;;;;;;;;5015050;28;20125;-78
2023/01/28 14:33:42;;;;;;;38.65;28.58;;;;;;;;;;5056432;28;20468;-77
2023/01/28 14:36:10;;;;;;;38.58;28.58;;;;;;;;;;5056279;28;20156;-77
2023/01/28 14:38:38;;;;;;;43.90;33.95;;;;;;;;;;5055728;28;20512;-72
2023/01/28 14:41:07;;;;;;;37.10;27.70;;;;;;;;;;5055375;28;20392;-72
2023/01/28 14:43:32;;;;;;;40.60;31.27;;;;;;;;;;5055307;28;20039;-72
2023/01/28 14:46:20;;;;;;;38.28;23.27;;;;;;;;;;5058378;28;20020;-72
2023/01/28 14:49:06;;;;;;;57.00;32.42;;;;;;;;;;5057059;28;20032;-72
2023/01/28 14:51:44;;;;;;;47.53;28.17;;;;;;;;;;5056344;28;20067;-72
2023/01/28 14:54:09;;;;;;;103.78;68.05;;;;;;;;;;5056579;28;20047;-78
2023/01/28 14:56:36;;;;;;;46.10;31.30;;;;;;;;;;5057113;28;20521;-77
2023/01/28 14:59:04;;;;;;;68.75;38.60;;;;;;;;;;5055967;28;20025;-78
2023/01/28 15:01:30;;;;;;;63.35;31.38;;;;;;;;;;5056365;28;20499;-77
2023/01/28 15:03:56;;;;;;;52.67;27.40;;;;;;;;;;5056432;28;20036;-78
2023/01/28 15:06:24;;;;;;;40.20;23.10;;;;;;;;;;5056335;28;20032;-78
2023/01/28 15:08:52;;;;;;;37.28;22.15;;;;;;;;;;5055472;28;20111;-77